createdAt,value
2018-06-16T00:01:29.587Z,100.00
2018-06-16T00:03:58.560Z,100.00
2018-06-16T00:06:27.620Z,100.00
2018-06-16T00:08:56.612Z,100.00
2018-06-16T00:11:25.618Z,100.00
2018-06-16T00:13:54.705Z,100.00
2018-06-16T00:16:23.668Z,100.00
2018-06-16T00:18:52.651Z,100.00
2018-06-16T00:21:21.717Z,100.00
2018-06-16T00:23:50.663Z,100.00
2018-06-16T00:26:19.609Z,100.00
2018-06-16T00:28:48.642Z,100.00
2018-06-16T00:31:17.593Z,100.00
2018-06-16T00:33:46.552Z,100.00
2018-06-16T00:36:15.501Z,100.00
2018-06-16T00:38:44.497Z,100.00
2018-06-16T00:41:13.448Z,100.00
2018-06-16T00:43:42.469Z,100.00
2018-06-16T00:46:11.522Z,100.00
2018-06-16T00:48:40.523Z,100.00
2018-06-16T00:51:09.504Z,100.00
2018-06-16T00:53:38.509Z,100.00
2018-06-16T00:56:07.553Z,100.00
2018-06-16T00:58:36.514Z,100.00
2018-06-16T01:01:05.513Z,100.00
2018-06-16T01:03:34.475Z,100.00
2018-06-16T01:06:03.421Z,100.00
2018-06-16T01:08:32.364Z,100.00
2018-06-16T01:11:01.369Z,100.00
2018-06-16T01:13:30.392Z,100.00
2018-06-16T01:15:59.358Z,100.00
2018-06-16T01:18:28.507Z,100.00
2018-06-16T01:20:58.356Z,100.00
2018-06-16T01:23:27.316Z,100.00
2018-06-16T01:25:56.380Z,100.00
2018-06-16T01:28:25.453Z,100.00
2018-06-16T01:30:54.460Z,100.00
2018-06-16T01:33:23.556Z,100.00
2018-06-16T01:35:52.561Z,100.00
2018-06-16T01:38:22.044Z,100.00
2018-06-16T01:40:50.984Z,100.00
2018-06-16T01:43:19.940Z,100.00
2018-06-16T01:45:48.876Z,100.00
2018-06-16T01:48:17.827Z,100.00
2018-06-16T01:50:46.824Z,100.00
2018-06-16T01:53:15.770Z,100.00
2018-06-16T01:55:44.704Z,100.00
2018-06-16T01:58:13.731Z,100.00
2018-06-16T02:00:42.736Z,100.00
2018-06-16T02:03:11.822Z,100.00
2018-06-16T02:05:40.905Z,100.00
2018-06-16T02:08:09.924Z,100.00
2018-06-16T02:10:38.981Z,100.00
2018-06-16T02:13:07.937Z,100.00
2018-06-16T02:15:36.940Z,100.00
2018-06-16T02:18:05.943Z,100.00
2018-06-16T02:20:35.009Z,100.00
2018-06-16T02:23:04.026Z,100.00
2018-06-16T02:25:33.101Z,100.00
2018-06-16T02:28:02.064Z,100.00
2018-06-16T02:30:31.004Z,100.00
2018-06-16T02:32:59.969Z,100.00
2018-06-16T02:35:29.049Z,100.00
2018-06-16T02:37:58.138Z,100.00
2018-06-16T02:40:27.101Z,100.00
2018-06-16T02:42:56.297Z,100.00
2018-06-16T02:45:25.253Z,100.00
2018-06-16T02:47:54.200Z,100.00
2018-06-16T02:50:23.347Z,100.00
2018-06-16T02:52:52.296Z,100.00
2018-06-16T02:55:21.297Z,100.00
2018-06-16T02:57:50.292Z,100.00
2018-06-16T03:00:19.311Z,100.00
2018-06-16T03:02:48.239Z,100.00
2018-06-16T03:05:17.381Z,100.00
2018-06-16T03:07:46.332Z,100.00
2018-06-16T03:10:15.284Z,100.00
2018-06-16T03:12:44.363Z,100.00
2018-06-16T03:15:13.505Z,100.00
2018-06-16T03:17:42.492Z,100.00
2018-06-16T03:20:11.516Z,100.00
2018-06-16T03:22:40.537Z,100.00
2018-06-16T03:25:09.496Z,100.00
2018-06-16T03:27:38.557Z,100.00
2018-06-16T03:30:07.603Z,100.00
2018-06-16T03:32:36.597Z,100.00
2018-06-16T03:35:05.560Z,100.00
2018-06-16T03:37:34.515Z,100.00
2018-06-16T03:40:03.568Z,100.00
2018-06-16T03:42:32.504Z,100.00
2018-06-16T03:45:01.593Z,100.00
2018-06-16T03:47:30.684Z,100.00
2018-06-16T03:49:59.704Z,100.00
2018-06-16T03:52:28.783Z,100.00
2018-06-16T03:54:58.005Z,100.00
2018-06-16T03:57:27.039Z,100.00
2018-06-16T03:59:56.093Z,100.00
2018-06-16T04:02:25.100Z,100.00
2018-06-16T04:04:54.113Z,100.00
2018-06-16T04:07:23.062Z,100.00
2018-06-16T04:09:52.082Z,100.00
2018-06-16T04:12:21.404Z,100.00
2018-06-16T04:14:50.464Z,98.44
2018-06-16T04:17:20.493Z,97.60
2018-06-16T04:19:51.780Z,97.66
2018-06-16T04:22:21.212Z,96.79
2018-06-16T04:24:50.232Z,96.93
2018-06-16T04:27:19.216Z,96.74
2018-06-16T04:29:48.237Z,96.50
2018-06-16T04:32:17.179Z,95.31
2018-06-16T04:34:46.302Z,95.69
2018-06-16T04:37:15.424Z,95.86
2018-06-16T04:39:44.412Z,95.88
2018-06-16T04:42:13.400Z,95.26
2018-06-16T04:44:42.426Z,95.38
2018-06-16T04:47:11.380Z,95.42
2018-06-16T04:49:40.383Z,95.35
2018-06-16T04:52:09.402Z,94.58
2018-06-16T04:54:38.449Z,94.38
2018-06-16T04:57:07.496Z,94.55
2018-06-16T04:59:36.496Z,93.93
2018-06-16T05:02:05.585Z,93.58
2018-06-16T05:04:34.560Z,93.66
2018-06-16T05:07:03.515Z,92.52
2018-06-16T05:09:32.551Z,93.29
2018-06-16T05:12:01.619Z,92.98
2018-06-16T05:14:30.597Z,92.06
2018-06-16T05:16:59.620Z,92.04
2018-06-16T05:19:28.696Z,91.77
2018-06-16T05:21:57.800Z,92.61
2018-06-16T05:24:26.812Z,90.77
2018-06-16T05:26:55.844Z,91.02
2018-06-16T05:29:24.808Z,88.50
2018-06-16T05:31:53.756Z,86.03
2018-06-16T05:34:22.753Z,83.74
2018-06-16T05:36:51.926Z,81.53
2018-06-16T05:39:21.011Z,82.36
2018-06-16T05:41:50.090Z,81.83
2018-06-16T05:44:19.124Z,80.09
2018-06-16T05:46:48.217Z,77.66
2018-06-16T05:49:17.238Z,78.04
2018-06-16T05:51:46.193Z,77.53
2018-06-16T05:54:15.269Z,77.71
2018-06-16T05:56:44.239Z,78.69
2018-06-16T05:59:13.244Z,78.83
2018-06-16T06:01:42.272Z,77.51
2018-06-16T06:04:11.263Z,77.16
2018-06-16T06:06:40.305Z,75.30
2018-06-16T06:09:10.435Z,73.68
2018-06-16T06:11:39.671Z,71.92
2018-06-16T06:14:09.596Z,75.08
2018-06-16T06:16:39.229Z,75.39
2018-06-16T06:19:08.209Z,75.01
2018-06-16T06:21:37.214Z,73.54
2018-06-16T06:24:06.241Z,71.68
2018-06-16T06:26:35.377Z,73.85
2018-06-16T06:29:04.405Z,73.93
2018-06-16T06:31:33.363Z,73.75
2018-06-16T06:34:02.384Z,73.11
2018-06-16T06:36:31.404Z,72.85
2018-06-16T06:39:00.413Z,72.28
2018-06-16T06:41:29.394Z,70.30
2018-06-16T06:43:58.364Z,69.16
2018-06-16T06:46:27.473Z,68.66
2018-06-16T06:48:56.441Z,67.36
2018-06-16T06:51:25.444Z,68.73
2018-06-16T06:53:54.534Z,66.89
2018-06-16T06:56:23.557Z,67.22
2018-06-16T06:58:52.597Z,67.42
2018-06-16T07:01:21.556Z,63.36
2018-06-16T07:03:50.639Z,62.72
2018-06-16T07:06:19.690Z,61.31
2018-06-16T07:08:48.701Z,57.74
2018-06-16T07:11:17.787Z,52.94
2018-06-16T07:13:46.865Z,50.82
2018-06-16T07:16:15.832Z,48.03
2018-06-16T07:18:44.888Z,46.60
2018-06-16T07:21:13.908Z,47.04
2018-06-16T07:23:42.917Z,47.31
2018-06-16T07:26:11.920Z,47.14
2018-06-16T07:28:40.890Z,46.54
2018-06-16T07:31:09.836Z,47.65
2018-06-16T07:33:38.920Z,46.83
2018-06-16T07:36:07.909Z,48.01
2018-06-16T07:38:36.905Z,47.01
2018-06-16T07:41:05.857Z,49.12
2018-06-16T07:43:34.932Z,50.66
2018-06-16T07:46:03.894Z,50.21
2018-06-16T07:48:32.951Z,51.46
2018-06-16T07:51:01.953Z,54.37
2018-06-16T07:53:30.990Z,55.81
2018-06-16T07:55:59.980Z,57.50
2018-06-16T07:58:29.061Z,59.59
2018-06-16T08:00:58.045Z,59.02
2018-06-16T08:03:27.000Z,59.70
2018-06-16T08:05:55.982Z,57.66
2018-06-16T08:08:25.040Z,60.48
2018-06-16T08:10:54.017Z,60.96
2018-06-16T08:13:23.078Z,60.94
2018-06-16T08:15:52.110Z,59.86
2018-06-16T08:18:21.149Z,58.68
2018-06-16T08:20:50.202Z,55.96
2018-06-16T08:23:19.204Z,54.51
2018-06-16T08:25:48.236Z,53.56
2018-06-16T08:28:17.255Z,52.62
2018-06-16T08:30:46.235Z,54.17
2018-06-16T08:33:15.165Z,56.60
2018-06-16T08:35:44.220Z,56.22
2018-06-16T08:38:13.313Z,55.36
2018-06-16T08:40:42.275Z,57.16
2018-06-16T08:43:11.233Z,58.52
2018-06-16T08:45:40.304Z,57.38
2018-06-16T08:48:09.297Z,57.11
2018-06-16T08:50:38.322Z,57.94
2018-06-16T08:53:07.421Z,57.76
2018-06-16T08:55:36.480Z,56.05
2018-06-16T08:58:05.433Z,58.59
2018-06-16T09:00:34.384Z,57.20
2018-06-16T09:03:03.340Z,57.32
2018-06-16T09:05:32.337Z,58.52
2018-06-16T09:08:01.352Z,58.86
2018-06-16T09:10:30.529Z,56.86
2018-06-16T09:12:59.497Z,57.08
2018-06-16T09:15:28.577Z,55.95
2018-06-16T09:17:57.687Z,57.98
2018-06-16T09:20:26.660Z,59.27
2018-06-16T09:22:55.841Z,55.89
2018-06-16T09:25:24.845Z,56.46
2018-06-16T09:27:53.938Z,56.77
2018-06-16T09:30:22.884Z,56.16
2018-06-16T09:32:51.919Z,56.37
2018-06-16T09:35:20.920Z,56.94
2018-06-16T09:37:49.949Z,57.16
2018-06-16T09:40:18.888Z,53.60
2018-06-16T09:42:47.912Z,55.69
2018-06-16T09:45:16.856Z,56.08
2018-06-16T09:47:45.973Z,55.50
2018-06-16T09:50:14.925Z,55.53
2018-06-16T09:52:43.965Z,53.36
2018-06-16T09:55:12.924Z,52.79
2018-06-16T09:57:41.860Z,51.32
2018-06-16T10:00:14.883Z,49.90
2018-06-16T10:02:43.833Z,49.19
2018-06-16T10:05:12.861Z,48.96
2018-06-16T10:07:41.831Z,49.31
2018-06-16T10:10:10.862Z,44.87
2018-06-16T10:12:39.936Z,45.51
2018-06-16T10:15:08.976Z,46.96
2018-06-16T10:17:37.931Z,47.27
2018-06-16T10:20:06.880Z,47.08
2018-06-16T10:22:35.864Z,47.47
2018-06-16T10:25:04.857Z,47.79
2018-06-16T10:27:33.920Z,46.02
2018-06-16T10:30:02.932Z,47.17
2018-06-16T10:32:32.003Z,46.95
2018-06-16T10:35:00.973Z,48.72
2018-06-16T10:37:29.956Z,48.68
2018-06-16T10:39:58.940Z,50.12
2018-06-16T10:42:27.916Z,50.63
2018-06-16T10:44:57.020Z,50.77
2018-06-16T10:47:26.040Z,51.88
2018-06-16T10:49:55.045Z,52.84
2018-06-16T10:52:24.092Z,54.07
2018-06-16T10:54:53.181Z,52.67
2018-06-16T10:57:22.229Z,54.16
2018-06-16T10:59:51.177Z,51.16
2018-06-16T11:02:20.145Z,51.31
2018-06-16T11:04:49.263Z,50.82
2018-06-16T11:07:18.307Z,50.49
2018-06-16T11:09:47.349Z,48.51
2018-06-16T11:12:16.432Z,46.96
2018-06-16T11:14:45.379Z,47.87
2018-06-16T11:17:14.515Z,49.46
2018-06-16T11:19:43.527Z,50.73
2018-06-16T11:22:12.463Z,50.91
2018-06-16T11:24:41.476Z,52.32
2018-06-16T11:27:10.411Z,54.19
2018-06-16T11:29:39.376Z,55.27
2018-06-16T11:32:08.335Z,58.60
2018-06-16T11:34:37.368Z,58.50
2018-06-16T11:37:06.333Z,59.56
2018-06-16T11:39:35.355Z,61.32
2018-06-16T11:42:04.427Z,63.99
2018-06-16T11:44:33.430Z,63.32
2018-06-16T11:47:02.392Z,64.71
2018-06-16T11:49:31.321Z,64.52
2018-06-16T11:52:00.337Z,65.23
2018-06-16T11:54:29.385Z,67.46
2018-06-16T11:56:58.455Z,67.62
2018-06-16T11:59:27.456Z,67.06
2018-06-16T12:01:56.488Z,69.36
2018-06-16T12:04:25.557Z,68.26
2018-06-16T12:06:54.507Z,70.21
2018-06-16T12:09:23.513Z,69.78
2018-06-16T12:11:52.448Z,70.53
2018-06-16T12:14:21.407Z,70.79
2018-06-16T12:16:50.368Z,70.23
2018-06-16T12:19:19.448Z,70.94
2018-06-16T12:21:48.451Z,71.79
2018-06-16T12:24:17.451Z,71.49
2018-06-16T12:26:46.431Z,71.91
2018-06-16T12:29:15.437Z,73.84
2018-06-16T12:31:44.404Z,73.80
2018-06-16T12:34:13.342Z,74.32
2018-06-16T12:36:42.336Z,74.42
2018-06-16T12:39:12.030Z,74.60
2018-06-16T12:41:41.195Z,75.46
2018-06-16T12:44:10.223Z,76.04
2018-06-16T12:46:39.151Z,76.46
2018-06-16T12:49:08.132Z,75.43
2018-06-16T12:51:37.186Z,76.21
2018-06-16T12:54:06.286Z,79.15
2018-06-16T12:56:35.296Z,83.42
2018-06-16T12:59:04.263Z,87.01
2018-06-16T13:01:33.225Z,89.55
2018-06-16T13:04:02.297Z,93.12
2018-06-16T13:06:31.396Z,93.74
2018-06-16T13:09:00.413Z,89.35
2018-06-16T13:11:29.477Z,92.99
2018-06-16T13:13:58.495Z,93.34
2018-06-16T13:16:27.489Z,96.13
2018-06-16T13:18:56.929Z,98.62
2018-06-16T13:21:26.312Z,99.98
2018-06-16T13:23:55.269Z,100.00
2018-06-16T13:26:24.293Z,100.00
2018-06-16T13:28:53.338Z,100.00
2018-06-16T13:31:22.381Z,100.00
2018-06-16T13:33:51.426Z,100.00
2018-06-16T13:36:20.517Z,100.00
2018-06-16T13:38:49.563Z,100.00
2018-06-16T13:41:18.603Z,100.00
2018-06-16T13:43:47.556Z,100.00
2018-06-16T13:46:16.530Z,100.00
2018-06-16T13:48:45.548Z,100.00
2018-06-16T13:51:14.581Z,100.00
2018-06-16T13:53:43.596Z,100.00
2018-06-16T13:56:13.317Z,100.00
2018-06-16T13:58:42.407Z,100.00
2018-06-16T14:01:11.557Z,100.00
2018-06-16T14:03:40.612Z,100.00
2018-06-16T14:06:09.618Z,100.00
2018-06-16T14:08:38.739Z,100.00
2018-06-16T14:11:07.735Z,100.00
2018-06-16T14:13:36.762Z,100.00
2018-06-16T14:16:05.808Z,100.00
2018-06-16T14:18:34.835Z,100.00
2018-06-16T14:21:03.813Z,100.00
2018-06-16T14:23:32.792Z,100.00
2018-06-16T14:26:01.786Z,100.00
2018-06-16T14:28:30.817Z,100.00
2018-06-16T14:31:00.004Z,100.00
2018-06-16T14:33:29.030Z,100.00
2018-06-16T14:35:58.041Z,100.00
2018-06-16T14:38:27.053Z,100.00
2018-06-16T14:40:56.084Z,100.00
2018-06-16T14:43:25.043Z,100.00
2018-06-16T14:45:54.109Z,100.00
2018-06-16T14:48:23.068Z,100.00
2018-06-16T14:50:52.146Z,100.00
2018-06-16T14:53:21.155Z,100.00
2018-06-16T14:55:50.192Z,100.00
2018-06-16T14:58:19.112Z,100.00
2018-06-16T15:00:48.102Z,100.00
2018-06-16T15:03:17.165Z,100.00
2018-06-16T15:05:46.152Z,98.12
2018-06-16T15:08:15.172Z,97.84
2018-06-16T15:10:44.205Z,97.51
2018-06-16T15:13:13.204Z,96.14
2018-06-16T15:15:42.257Z,96.97
2018-06-16T15:18:11.504Z,96.33
2018-06-16T15:20:40.597Z,96.46
2018-06-16T15:23:09.548Z,94.22
2018-06-16T15:25:38.884Z,95.04
2018-06-16T15:28:07.851Z,95.29
2018-06-16T15:30:36.950Z,95.03
2018-06-16T15:33:05.984Z,93.01
2018-06-16T15:35:35.026Z,94.01
2018-06-16T15:38:04.040Z,91.20
2018-06-16T15:40:33.028Z,90.00
2018-06-16T15:43:02.098Z,90.45
2018-06-16T15:45:31.056Z,90.94
2018-06-16T15:48:00.001Z,90.62
2018-06-16T15:50:28.977Z,90.28
2018-06-16T15:52:57.935Z,89.15
2018-06-16T15:55:26.893Z,89.59
2018-06-16T15:57:55.850Z,89.97
2018-06-16T16:00:24.879Z,90.59
2018-06-16T16:02:54.560Z,89.73
2018-06-16T16:05:23.601Z,89.37
2018-06-16T16:07:52.645Z,90.24
2018-06-16T16:10:22.014Z,90.11
2018-06-16T16:12:50.993Z,90.19
2018-06-16T16:15:20.021Z,90.51
2018-06-16T16:17:49.149Z,91.79
2018-06-16T16:20:18.250Z,92.49
2018-06-16T16:22:47.212Z,92.87
2018-06-16T16:25:16.249Z,93.28
2018-06-16T16:27:45.455Z,93.00
2018-06-16T16:30:14.423Z,93.40
2018-06-16T16:32:43.393Z,93.95
2018-06-16T16:35:12.481Z,94.10
2018-06-16T16:37:41.474Z,95.14
2018-06-16T16:40:10.511Z,95.01
2018-06-16T16:42:39.528Z,94.40
2018-06-16T16:45:08.763Z,94.83
2018-06-16T16:47:37.824Z,94.99
2018-06-16T16:50:06.829Z,95.30
2018-06-16T16:52:35.827Z,95.31
2018-06-16T16:55:04.781Z,95.10
2018-06-16T16:57:33.860Z,95.57
2018-06-16T17:00:02.821Z,95.65
2018-06-16T17:02:31.848Z,95.57
2018-06-16T17:05:00.877Z,95.29
2018-06-16T17:07:29.910Z,96.17
2018-06-16T17:09:58.869Z,95.82
2018-06-16T17:12:27.923Z,95.50
2018-06-16T17:14:56.938Z,94.62
2018-06-16T17:17:25.985Z,95.64
2018-06-16T17:19:54.948Z,96.05
2018-06-16T17:22:23.961Z,95.54
2018-06-16T17:24:52.981Z,95.39
2018-06-16T17:27:22.035Z,95.62
2018-06-16T17:29:51.090Z,97.62
2018-06-16T17:32:20.140Z,98.26
2018-06-16T17:34:49.182Z,100.00
2018-06-16T17:37:18.151Z,100.00
2018-06-16T17:39:47.088Z,100.00
2018-06-16T17:42:16.059Z,100.00
2018-06-16T17:44:45.073Z,100.00
2018-06-16T17:47:14.176Z,100.00
2018-06-16T17:49:43.228Z,100.00
2018-06-16T17:52:12.329Z,100.00
2018-06-16T17:54:41.280Z,100.00
2018-06-16T17:57:10.259Z,100.00
2018-06-16T17:59:39.248Z,100.00
2018-06-16T18:02:08.504Z,100.00
2018-06-16T18:04:37.505Z,100.00
2018-06-16T18:07:06.448Z,100.00
2018-06-16T18:09:36.175Z,100.00
2018-06-16T18:12:05.825Z,100.00
2018-06-16T18:14:35.464Z,100.00
2018-06-16T18:17:05.126Z,100.00
2018-06-16T18:19:34.780Z,100.00
2018-06-16T18:22:04.591Z,100.00
2018-06-16T18:24:34.238Z,100.00
2018-06-16T18:27:04.801Z,100.00
2018-06-16T18:29:34.436Z,100.00
2018-06-16T18:32:04.225Z,100.00
2018-06-16T18:34:33.925Z,100.00
2018-06-16T18:37:03.673Z,100.00
2018-06-16T18:39:33.386Z,100.00
2018-06-16T18:42:03.605Z,100.00
2018-06-16T18:44:33.830Z,100.00
2018-06-16T18:47:04.614Z,100.00
2018-06-16T18:49:34.378Z,100.00
2018-06-16T18:52:04.030Z,100.00
2018-06-16T18:54:33.759Z,100.00
2018-06-16T18:57:03.409Z,100.00
2018-06-16T18:59:33.111Z,100.00
2018-06-16T19:02:02.788Z,100.00
2018-06-16T19:04:33.283Z,100.00
2018-06-16T19:07:02.927Z,100.00
2018-06-16T19:09:34.099Z,100.00
2018-06-16T19:12:03.400Z,100.00
2018-06-16T19:14:32.542Z,100.00
2018-06-16T19:17:01.530Z,100.00
2018-06-16T19:19:30.774Z,100.00
2018-06-16T19:21:59.767Z,100.00
2018-06-16T19:24:28.755Z,100.00
2018-06-16T19:26:57.760Z,100.00
2018-06-16T19:29:26.764Z,100.00
2018-06-16T19:31:55.791Z,100.00
2018-06-16T19:34:24.739Z,100.00
2018-06-16T19:36:53.728Z,100.00
2018-06-16T19:39:22.769Z,100.00
2018-06-16T19:41:51.750Z,100.00
2018-06-16T19:44:20.699Z,100.00
2018-06-16T19:46:49.685Z,100.00
2018-06-16T19:49:18.651Z,100.00
2018-06-16T19:51:47.688Z,100.00
2018-06-16T19:54:16.666Z,100.00
2018-06-16T19:56:45.662Z,100.00
2018-06-16T19:59:14.644Z,100.00
2018-06-16T20:01:43.636Z,100.00
2018-06-16T20:04:13.056Z,100.00
2018-06-16T20:06:42.088Z,100.00
2018-06-16T20:09:11.107Z,100.00
2018-06-16T20:11:40.103Z,100.00
2018-06-16T20:14:09.090Z,100.00
2018-06-16T20:16:38.055Z,100.00
2018-06-16T20:19:07.207Z,100.00
2018-06-16T20:21:36.204Z,100.00
2018-06-16T20:24:05.169Z,100.00
2018-06-16T20:26:34.156Z,100.00
2018-06-16T20:29:03.130Z,100.00
2018-06-16T20:31:32.177Z,100.00
2018-06-16T20:34:01.207Z,100.00
2018-06-16T20:36:30.194Z,100.00
2018-06-16T20:38:59.184Z,100.00
2018-06-16T20:41:28.171Z,100.00
2018-06-16T20:43:57.160Z,100.00
2018-06-16T20:46:26.222Z,100.00
2018-06-16T20:48:55.207Z,100.00
2018-06-16T20:51:24.191Z,100.00
2018-06-16T20:53:53.177Z,100.00
2018-06-16T20:56:22.179Z,100.00
2018-06-16T20:58:51.246Z,100.00
2018-06-16T21:01:20.247Z,100.00
2018-06-16T21:03:49.287Z,100.00
2018-06-16T21:06:18.268Z,100.00
2018-06-16T21:08:47.322Z,100.00
2018-06-16T21:11:16.271Z,100.00
2018-06-16T21:13:45.229Z,100.00
2018-06-16T21:16:14.215Z,100.00
2018-06-16T21:18:43.195Z,100.00
2018-06-16T21:21:12.212Z,100.00
2018-06-16T21:23:41.276Z,100.00
2018-06-16T21:26:10.236Z,100.00
2018-06-16T21:28:39.212Z,100.00
2018-06-16T21:31:08.318Z,100.00
2018-06-16T21:33:37.317Z,100.00
2018-06-16T21:36:06.480Z,100.00
2018-06-16T21:38:35.506Z,100.00
2018-06-16T21:41:04.494Z,100.00
2018-06-16T21:43:33.513Z,100.00
2018-06-16T21:46:02.504Z,100.00
2018-06-16T21:48:31.540Z,100.00
2018-06-16T21:51:00.522Z,100.00
2018-06-16T21:53:29.491Z,100.00
2018-06-16T21:55:58.452Z,100.00
2018-06-16T21:58:27.492Z,100.00
2018-06-16T22:00:56.470Z,100.00
2018-06-16T22:03:25.413Z,100.00
2018-06-16T22:05:54.383Z,100.00
2018-06-16T22:08:28.451Z,100.00
2018-06-16T22:10:57.422Z,100.00
2018-06-16T22:13:26.374Z,100.00
2018-06-16T22:15:55.388Z,100.00
2018-06-16T22:18:24.734Z,100.00
2018-06-16T22:20:53.726Z,100.00
2018-06-16T22:23:22.680Z,100.00
2018-06-16T22:25:51.636Z,100.00
2018-06-16T22:28:20.622Z,100.00
2018-06-16T22:30:49.591Z,100.00
2018-06-16T22:33:18.564Z,100.00
2018-06-16T22:35:47.538Z,100.00
2018-06-16T22:38:16.567Z,100.00
2018-06-16T22:40:45.535Z,100.00
2018-06-16T22:43:14.535Z,100.00
2018-06-16T22:45:43.517Z,100.00
2018-06-16T22:48:12.492Z,100.00
2018-06-16T22:50:41.470Z,100.00
2018-06-16T22:53:10.423Z,100.00
2018-06-16T22:55:39.385Z,100.00
2018-06-16T22:58:08.337Z,100.00
2018-06-16T23:00:37.309Z,100.00
2018-06-16T23:03:06.312Z,100.00
2018-06-16T23:05:35.358Z,100.00
2018-06-16T23:08:04.307Z,100.00
2018-06-16T23:10:33.282Z,100.00
2018-06-16T23:13:02.274Z,100.00
2018-06-16T23:15:31.278Z,100.00
2018-06-16T23:18:00.235Z,100.00
2018-06-16T23:20:29.221Z,100.00
2018-06-16T23:22:58.211Z,100.00
2018-06-16T23:25:27.225Z,100.00
2018-06-16T23:27:56.270Z,100.00
2018-06-16T23:30:25.252Z,100.00
2018-06-16T23:32:54.311Z,100.00
2018-06-16T23:35:23.272Z,100.00
2018-06-16T23:37:52.241Z,100.00
2018-06-16T23:40:21.206Z,100.00
2018-06-16T23:42:50.143Z,100.00
2018-06-16T23:45:19.096Z,100.00
2018-06-16T23:47:48.056Z,100.00
2018-06-16T23:50:16.991Z,100.00
2018-06-16T23:52:45.958Z,100.00
2018-06-16T23:55:15.024Z,100.00
2018-06-16T23:57:43.986Z,100.00
